createdAt,value
2018-12-04T00:00:44.128Z,75.68
2018-12-04T00:03:14.481Z,75.42
2018-12-04T00:05:44.763Z,75.42
2018-12-04T00:08:14.987Z,75.71
2018-12-04T00:10:45.294Z,75.35
2018-12-04T00:13:15.518Z,75.13
2018-12-04T00:15:45.864Z,74.37
2018-12-04T00:18:15.997Z,74.64
2018-12-04T00:20:46.437Z,74.92
2018-12-04T00:23:17.459Z,74.87
2018-12-04T00:25:48.129Z,74.92
2018-12-04T00:28:18.361Z,74.54
2018-12-04T00:30:49.096Z,74.54
2018-12-04T00:33:19.243Z,75.25
2018-12-04T00:35:49.778Z,75.48
2018-12-04T00:38:22.124Z,75.10
2018-12-04T00:40:52.491Z,75.18
2018-12-04T00:43:24.526Z,75.38
2018-12-04T00:45:54.767Z,74.89
2018-12-04T00:48:25.500Z,74.29
2018-12-04T00:50:55.856Z,74.64
2018-12-04T00:53:26.896Z,74.58
2018-12-04T00:55:58.319Z,74.53
2018-12-04T00:58:28.717Z,74.66
2018-12-04T01:00:59.470Z,74.62
2018-12-04T01:03:30.311Z,73.84
2018-12-04T01:06:01.658Z,74.18
2018-12-04T01:08:32.801Z,73.76
2018-12-04T01:11:02.993Z,74.09
2018-12-04T01:13:33.828Z,73.64
2018-12-04T01:16:04.117Z,74.05
2018-12-04T01:18:34.773Z,74.35
2018-12-04T01:21:05.417Z,74.81
2018-12-04T01:23:36.677Z,75.22
2018-12-04T01:26:07.178Z,74.70
2018-12-04T01:28:37.308Z,74.13
2018-12-04T01:31:07.926Z,74.48
2018-12-04T01:33:38.395Z,74.67
2018-12-04T01:36:09.098Z,74.14
2018-12-04T01:38:41.629Z,74.13
2018-12-04T01:41:12.349Z,73.84
2018-12-04T01:43:43.310Z,74.27
2018-12-04T01:46:14.356Z,74.03
2018-12-04T01:48:45.404Z,74.12
2018-12-04T01:51:16.417Z,74.08
2018-12-04T01:53:47.440Z,73.45
2018-12-04T01:56:18.532Z,73.42
2018-12-04T01:58:48.963Z,74.25
2018-12-04T02:01:19.313Z,73.75
2018-12-04T02:03:49.654Z,73.81
2018-12-04T02:06:20.605Z,74.05
2018-12-04T02:08:51.109Z,74.21
2018-12-04T02:11:22.010Z,74.30
2018-12-04T02:13:52.858Z,75.25
2018-12-04T02:16:23.621Z,75.11
2018-12-04T02:18:55.461Z,75.39
2018-12-04T02:21:26.750Z,75.12
2018-12-04T02:23:57.609Z,75.80
2018-12-04T02:26:28.441Z,75.68
2018-12-04T02:28:59.127Z,75.91
2018-12-04T02:31:31.791Z,76.10
2018-12-04T02:34:02.228Z,75.37
2018-12-04T02:36:32.727Z,74.80
2018-12-04T02:39:03.812Z,74.96
2018-12-04T02:41:34.708Z,74.31
2018-12-04T02:44:05.670Z,73.47
2018-12-04T02:46:36.437Z,73.47
2018-12-04T02:49:07.100Z,73.08
2018-12-04T02:51:37.737Z,73.40
2018-12-04T02:54:09.067Z,72.94
2018-12-04T02:56:40.037Z,74.09
2018-12-04T02:59:12.303Z,74.39
2018-12-04T03:01:43.031Z,73.99
2018-12-04T03:04:13.383Z,74.16
2018-12-04T03:06:43.589Z,74.11
2018-12-04T03:09:14.679Z,73.19
2018-12-04T03:11:45.166Z,72.93
2018-12-04T03:14:16.145Z,73.06
2018-12-04T03:16:46.276Z,73.04
2018-12-04T03:19:18.025Z,73.50
2018-12-04T03:21:48.949Z,74.01
2018-12-04T03:24:19.065Z,74.51
2018-12-04T03:26:49.592Z,74.30
2018-12-04T03:29:21.487Z,74.31
2018-12-04T03:31:52.260Z,75.25
2018-12-04T03:34:22.908Z,75.04
2018-12-04T03:36:53.642Z,75.49
2018-12-04T03:39:24.884Z,74.79
2018-12-04T03:41:55.521Z,74.39
2018-12-04T03:44:26.063Z,74.50
2018-12-04T03:46:56.424Z,74.78
2018-12-04T03:49:26.997Z,73.65
2018-12-04T03:51:57.822Z,73.73
2018-12-04T03:54:28.455Z,74.12
2018-12-04T03:56:58.745Z,73.81
2018-12-04T03:59:29.296Z,73.52
2018-12-04T04:02:00.430Z,73.71
2018-12-04T04:04:31.063Z,73.96
2018-12-04T04:07:02.446Z,74.86
2018-12-04T04:09:33.470Z,73.68
2018-12-04T04:12:06.231Z,73.58
2018-12-04T04:14:37.548Z,73.12
2018-12-04T04:17:07.916Z,73.91
2018-12-04T04:19:39.425Z,73.55
2018-12-04T04:22:10.557Z,74.01
2018-12-04T04:24:41.362Z,73.83
2018-12-04T04:27:12.135Z,73.22
2018-12-04T04:29:43.228Z,72.56
2018-12-04T04:32:15.043Z,73.02
2018-12-04T04:34:45.569Z,73.33
2018-12-04T04:37:15.846Z,73.35
2018-12-04T04:39:47.013Z,73.38
2018-12-04T04:42:18.385Z,73.81
2018-12-04T04:44:48.647Z,72.60
2018-12-04T04:47:19.070Z,72.99
2018-12-04T04:49:49.573Z,72.52
2018-12-04T04:52:21.223Z,72.95
2018-12-04T04:54:52.250Z,73.21
2018-12-04T04:57:22.814Z,73.25
2018-12-04T04:59:54.230Z,73.61
2018-12-04T05:02:24.821Z,74.02
2018-12-04T05:04:55.359Z,73.27
2018-12-04T05:07:26.202Z,72.71
2018-12-04T05:09:56.435Z,72.28
2018-12-04T05:12:26.580Z,73.50
2018-12-04T05:14:56.913Z,72.68
2018-12-04T05:17:27.135Z,71.95
2018-12-04T05:19:57.511Z,72.53
2018-12-04T05:22:27.912Z,72.01
2018-12-04T05:24:58.188Z,71.82
2018-12-04T05:27:28.256Z,71.60
2018-12-04T05:29:58.633Z,71.78
2018-12-04T05:32:28.926Z,71.67
2018-12-04T05:34:59.238Z,72.68
2018-12-04T05:37:29.578Z,72.53
2018-12-04T05:39:59.663Z,72.58
2018-12-04T05:42:30.066Z,73.06
2018-12-04T05:45:00.260Z,72.43
2018-12-04T05:47:30.528Z,72.47
2018-12-04T05:50:01.294Z,72.10
2018-12-04T05:52:31.720Z,71.87
2018-12-04T05:55:01.929Z,72.03
2018-12-04T05:57:32.130Z,72.58
2018-12-04T06:00:02.322Z,72.00
2018-12-04T06:02:32.671Z,72.19
2018-12-04T06:05:02.868Z,72.13
2018-12-04T06:07:33.097Z,72.54
2018-12-04T06:10:04.690Z,72.41
2018-12-04T06:12:34.956Z,71.83
2018-12-04T06:15:05.624Z,72.31
2018-12-04T06:17:36.050Z,71.45
2018-12-04T06:20:06.567Z,71.18
2018-12-04T06:22:36.841Z,71.36
2018-12-04T06:25:07.203Z,72.26
2018-12-04T06:27:37.599Z,70.84
2018-12-04T06:30:08.338Z,71.51
2018-12-04T06:32:38.691Z,70.91
2018-12-04T06:35:09.148Z,71.44
2018-12-04T06:37:39.434Z,71.68
2018-12-04T06:40:09.830Z,72.13
2018-12-04T06:42:40.102Z,72.33
2018-12-04T06:45:10.429Z,71.99
2018-12-04T06:47:40.936Z,73.17
2018-12-04T06:50:12.067Z,72.45
2018-12-04T06:52:42.321Z,72.05
2018-12-04T06:55:12.575Z,72.15
2018-12-04T06:57:42.805Z,73.00
2018-12-04T07:00:12.940Z,72.60
2018-12-04T07:02:43.247Z,73.03
2018-12-04T07:05:13.708Z,72.67
2018-12-04T07:07:44.186Z,72.09
2018-12-04T07:10:14.486Z,72.83
2018-12-04T07:12:44.790Z,72.15
2018-12-04T07:15:15.221Z,71.76
2018-12-04T07:17:45.365Z,71.37
2018-12-04T07:20:15.460Z,71.12
2018-12-04T07:22:45.635Z,71.79
2018-12-04T07:25:15.851Z,71.05
2018-12-04T07:27:46.076Z,71.32
2018-12-04T07:30:16.402Z,71.96
2018-12-04T07:32:46.643Z,70.76
2018-12-04T07:35:16.937Z,71.66
2018-12-04T07:37:47.161Z,71.21
2018-12-04T07:40:17.385Z,70.31
2018-12-04T07:42:47.620Z,70.60
2018-12-04T07:45:17.784Z,70.91
2018-12-04T07:47:47.985Z,70.28
2018-12-04T07:50:18.151Z,71.35
2018-12-04T07:52:48.460Z,71.39
2018-12-04T07:55:18.765Z,71.15
2018-12-04T07:57:49.069Z,70.65
2018-12-04T08:00:19.306Z,70.94
2018-12-04T08:02:49.447Z,69.48
2018-12-04T08:05:20.312Z,68.89
2018-12-04T08:07:50.514Z,69.62
2018-12-04T08:10:20.893Z,69.40
2018-12-04T08:12:51.195Z,69.04
2018-12-04T08:15:21.538Z,69.70
2018-12-04T08:17:51.816Z,68.49
2018-12-04T08:20:22.062Z,68.54
2018-12-04T08:22:52.905Z,67.56
2018-12-04T08:25:23.154Z,67.29
2018-12-04T08:27:53.443Z,67.18
2018-12-04T08:30:23.714Z,66.56
2018-12-04T08:32:54.047Z,65.29
2018-12-04T08:35:24.262Z,65.73
2018-12-04T08:37:54.528Z,64.17
2018-12-04T08:40:24.766Z,65.53
2018-12-04T08:42:55.016Z,65.17
2018-12-04T08:45:25.252Z,64.15
2018-12-04T08:47:55.484Z,64.29
2018-12-04T08:50:25.751Z,64.04
2018-12-04T08:52:55.864Z,65.25
2018-12-04T08:55:26.120Z,64.10
2018-12-04T08:57:56.397Z,62.99
2018-12-04T09:00:26.588Z,63.69
2018-12-04T09:02:56.817Z,63.43
2018-12-04T09:05:26.986Z,63.34
2018-12-04T09:24:17.749Z,61.79
2018-12-04T09:26:48.115Z,61.96
2018-12-04T09:29:18.767Z,61.67
2018-12-04T09:31:49.302Z,61.40
2018-12-04T09:34:19.538Z,62.61
2018-12-04T09:36:49.782Z,62.40
2018-12-04T09:39:20.088Z,62.56
2018-12-04T09:41:50.437Z,62.35
2018-12-04T09:44:20.944Z,64.06
2018-12-04T09:46:51.373Z,63.87
2018-12-04T09:49:21.862Z,63.16
2018-12-04T09:51:51.965Z,62.99
2018-12-04T09:54:22.343Z,62.55
2018-12-04T09:56:52.529Z,63.22
2018-12-04T09:59:23.047Z,63.52
2018-12-04T10:01:53.410Z,63.90
2018-12-04T10:04:23.710Z,63.98
2018-12-04T10:06:54.053Z,63.80
2018-12-04T10:09:24.362Z,63.25
2018-12-04T10:11:55.550Z,63.66
2018-12-04T10:14:25.928Z,63.99
2018-12-04T10:16:56.236Z,63.55
2018-12-04T10:19:27.653Z,64.57
2018-12-04T10:21:57.829Z,63.45
2018-12-04T10:24:28.062Z,63.89
2018-12-04T10:26:59.147Z,62.76
2018-12-04T10:29:29.447Z,62.13
2018-12-04T10:31:59.770Z,61.39
2018-12-04T10:34:30.042Z,61.96
2018-12-04T10:37:00.222Z,61.37
2018-12-04T10:39:31.161Z,62.04
2018-12-04T10:42:01.454Z,61.37
2018-12-04T10:44:31.741Z,60.50
2018-12-04T10:47:02.268Z,61.28
2018-12-04T10:49:33.111Z,61.18
2018-12-04T10:52:03.428Z,61.00
2018-12-04T10:54:33.650Z,61.27
2018-12-04T10:57:09.666Z,61.96
2018-12-04T10:59:36.278Z,61.24
2018-12-04T11:02:12.955Z,62.01
2018-12-04T11:04:43.344Z,61.90
2018-12-04T11:07:13.721Z,62.51
2018-12-04T11:09:45.209Z,63.77
2018-12-04T11:12:15.597Z,63.64
2018-12-04T11:14:45.946Z,63.55
2018-12-04T11:17:16.222Z,63.16
2018-12-04T11:19:46.650Z,63.24
2018-12-04T11:22:17.076Z,62.87
2018-12-04T11:24:47.407Z,63.33
2018-12-04T11:27:17.742Z,63.82
2018-12-04T11:29:48.052Z,64.43
2018-12-04T11:32:18.289Z,63.86
2018-12-04T11:34:48.534Z,64.66
2018-12-04T11:37:18.915Z,64.75
2018-12-04T11:39:49.178Z,64.86
2018-12-04T11:42:19.571Z,64.88
2018-12-04T11:44:49.963Z,64.75
2018-12-04T11:47:20.839Z,64.89
2018-12-04T11:49:51.221Z,64.34
2018-12-04T12:09:01.851Z,65.19
2018-12-04T12:11:32.305Z,66.01
2018-12-04T12:14:03.213Z,66.91
2018-12-04T12:16:33.485Z,66.83
2018-12-04T12:19:03.904Z,68.48
2018-12-04T12:21:34.136Z,67.77
2018-12-04T12:24:04.453Z,67.76
2018-12-04T12:26:34.650Z,67.14
2018-12-04T12:29:04.953Z,67.40
2018-12-04T12:31:35.235Z,67.29
2018-12-04T12:34:05.469Z,67.50
2018-12-04T12:36:35.544Z,67.93
2018-12-04T12:39:08.608Z,68.22
2018-12-04T12:41:40.993Z,68.17
2018-12-04T12:44:11.467Z,67.20
2018-12-04T12:46:41.629Z,67.01
2018-12-04T12:49:12.549Z,66.18
2018-12-04T12:51:42.932Z,66.60
2018-12-04T12:54:13.234Z,67.50
2018-12-04T12:56:43.456Z,67.62
2018-12-04T12:59:13.785Z,67.35
2018-12-04T13:01:43.952Z,68.13
2018-12-04T13:04:14.215Z,67.70
2018-12-04T13:06:44.434Z,67.65
2018-12-04T13:09:14.666Z,67.61
2018-12-04T13:11:44.853Z,67.82
2018-12-04T13:14:14.981Z,67.54
2018-12-04T13:16:45.313Z,67.97
2018-12-04T13:19:15.865Z,68.26
2018-12-04T13:21:46.170Z,68.41
2018-12-04T13:24:16.452Z,68.29
2018-12-04T13:26:46.683Z,68.89
2018-12-04T13:29:16.949Z,68.04
2018-12-04T13:31:47.252Z,69.94
2018-12-04T13:34:17.550Z,69.28
2018-12-04T13:36:47.709Z,69.35
2018-12-04T13:39:18.138Z,69.92
2018-12-04T13:41:48.362Z,70.24
2018-12-04T13:44:20.140Z,70.33
2018-12-04T13:46:50.505Z,71.09
2018-12-04T13:49:20.889Z,71.01
2018-12-04T13:51:51.047Z,71.42
2018-12-04T13:54:22.245Z,72.00
2018-12-04T13:56:52.581Z,71.95
2018-12-04T13:59:23.062Z,72.25
2018-12-04T14:01:53.430Z,72.65
2018-12-04T14:04:23.709Z,72.38
2018-12-04T14:06:53.940Z,72.09
2018-12-04T14:09:26.117Z,72.68
2018-12-04T14:11:56.669Z,72.40
2018-12-04T14:14:26.984Z,72.43
2018-12-04T14:16:57.289Z,72.02
2018-12-04T14:19:27.591Z,72.39
2018-12-04T14:21:57.798Z,71.85
2018-12-04T14:24:28.207Z,71.60
2018-12-04T14:26:58.477Z,71.97
2018-12-04T14:29:28.678Z,71.82
2018-12-04T14:31:59.139Z,71.75
2018-12-04T14:34:29.929Z,72.28
2018-12-04T14:37:00.196Z,71.83
2018-12-04T14:39:30.505Z,72.36
2018-12-04T14:42:00.925Z,72.31
2018-12-04T14:44:31.435Z,72.15
2018-12-04T14:47:01.899Z,72.51
2018-12-04T14:49:32.140Z,72.40
2018-12-04T14:52:03.021Z,72.80
2018-12-04T14:54:33.157Z,72.94
2018-12-04T14:57:03.537Z,72.07
2018-12-04T14:59:33.828Z,72.59
2018-12-04T15:02:04.428Z,72.61
2018-12-04T15:04:34.820Z,72.02
2018-12-04T15:07:05.209Z,72.68
2018-12-04T15:09:35.629Z,73.12
2018-12-04T15:12:05.987Z,73.64
2018-12-04T15:14:36.373Z,73.28
2018-12-04T15:17:07.368Z,73.61
2018-12-04T15:19:37.825Z,73.59
2018-12-04T15:22:08.195Z,73.51
2018-12-04T15:24:38.356Z,74.21
2018-12-04T15:27:08.761Z,74.68
2018-12-04T15:29:39.206Z,74.27
2018-12-04T15:32:09.595Z,74.46
2018-12-04T15:34:39.947Z,74.65
2018-12-04T15:37:10.329Z,74.55
2018-12-04T15:39:40.650Z,74.76
2018-12-04T15:42:11.184Z,74.52
2018-12-04T15:44:41.503Z,73.60
2018-12-04T15:47:12.861Z,74.63
2018-12-04T15:49:44.515Z,74.25
2018-12-04T15:52:15.039Z,74.37
2018-12-04T15:54:45.599Z,73.44
2018-12-04T15:57:16.119Z,73.33
2018-12-04T15:59:46.393Z,73.20
2018-12-04T16:02:16.875Z,73.40
2018-12-04T16:04:47.184Z,72.78
2018-12-04T16:07:17.386Z,73.26
2018-12-04T16:09:47.881Z,73.21
2018-12-04T16:12:18.228Z,73.15
2018-12-04T16:14:48.609Z,73.10
2018-12-04T16:17:18.967Z,73.31
2018-12-04T16:19:49.393Z,73.33
2018-12-04T16:22:19.767Z,73.02
2018-12-04T16:24:50.253Z,72.98
2018-12-04T16:27:21.177Z,73.08
2018-12-04T16:29:51.439Z,72.27
2018-12-04T16:32:21.707Z,73.00
2018-12-04T16:34:51.978Z,72.32
2018-12-04T16:37:22.222Z,72.50
2018-12-04T16:39:52.540Z,71.13
2018-12-04T16:42:22.917Z,71.94
2018-12-04T16:44:53.288Z,71.52
2018-12-04T16:47:23.610Z,71.37
2018-12-04T16:49:53.859Z,71.76
2018-12-04T16:52:24.359Z,72.24
2018-12-04T16:54:54.653Z,71.58
2018-12-04T16:57:25.198Z,72.06
2018-12-04T16:59:55.629Z,72.41
2018-12-04T17:02:26.215Z,72.48
2018-12-04T17:04:56.612Z,71.61
2018-12-04T17:07:26.872Z,71.93
2018-12-04T17:09:57.374Z,70.60
2018-12-04T17:12:27.651Z,71.27
2018-12-04T17:14:57.996Z,71.48
2018-12-04T17:17:28.326Z,71.42
2018-12-04T17:19:58.691Z,71.54
2018-12-04T17:22:29.192Z,72.65
2018-12-04T17:24:59.420Z,72.53
2018-12-04T17:27:29.667Z,71.93
2018-12-04T17:30:00.034Z,70.88
2018-12-04T17:32:31.386Z,70.40
2018-12-04T17:35:01.905Z,69.92
2018-12-04T17:37:33.375Z,71.43
2018-12-04T17:40:04.469Z,71.96
2018-12-04T17:42:34.865Z,72.61
2018-12-04T17:45:05.835Z,72.57
2018-12-04T17:47:36.090Z,72.98
2018-12-04T17:50:07.864Z,72.64
2018-12-04T17:52:38.338Z,71.94
2018-12-04T17:55:08.964Z,72.48
2018-12-04T17:57:39.207Z,71.26
2018-12-04T18:00:11.457Z,71.70
2018-12-04T18:02:43.618Z,71.53
2018-12-04T18:05:13.822Z,71.94
2018-12-04T18:07:46.210Z,71.62
2018-12-04T18:10:16.644Z,71.28
2018-12-04T18:12:47.191Z,71.23
2018-12-04T18:15:19.567Z,71.13
2018-12-04T18:17:49.774Z,72.61
2018-12-04T18:20:20.252Z,71.81
2018-12-04T18:22:50.632Z,71.62
2018-12-04T18:25:21.191Z,72.58
2018-12-04T18:27:51.432Z,72.68
2018-12-04T18:30:21.701Z,72.61
2018-12-04T18:32:52.954Z,71.99
2018-12-04T18:35:24.114Z,72.26
2018-12-04T18:37:54.361Z,71.25
2018-12-04T18:40:24.631Z,71.47
2018-12-04T18:42:55.881Z,71.74
2018-12-04T18:45:26.196Z,71.86
2018-12-04T18:47:56.579Z,72.19
2018-12-04T18:50:26.946Z,71.98
2018-12-04T18:52:57.722Z,71.69
2018-12-04T18:55:28.038Z,71.97
2018-12-04T18:57:58.348Z,71.74
2018-12-04T19:00:28.793Z,72.95
2018-12-04T19:02:59.112Z,73.55
2018-12-04T19:05:29.665Z,72.87
2018-12-04T19:08:00.064Z,73.36
2018-12-04T19:10:30.370Z,73.50
2018-12-04T19:13:00.595Z,73.60
2018-12-04T19:15:30.796Z,73.78
2018-12-04T19:18:01.141Z,73.58
2018-12-04T19:20:31.490Z,73.87
2018-12-04T19:23:02.060Z,74.29
2018-12-04T19:25:32.428Z,73.24
2018-12-04T19:28:03.213Z,73.36
2018-12-04T19:30:33.631Z,73.60
2018-12-04T19:33:03.934Z,73.24
2018-12-04T19:35:34.070Z,73.39
2018-12-04T19:38:06.828Z,73.57
2018-12-04T19:40:37.348Z,73.97
2018-12-04T19:43:07.754Z,73.84
2018-12-04T19:45:38.142Z,72.33
2018-12-04T19:48:08.368Z,73.06
2018-12-04T19:50:38.590Z,72.88
2018-12-04T19:53:08.937Z,72.99
2018-12-04T19:55:39.270Z,73.14
2018-12-04T19:58:10.236Z,73.54
2018-12-04T20:00:40.549Z,73.18
2018-12-04T20:03:10.749Z,72.81
2018-12-04T20:05:41.040Z,72.57
2018-12-04T20:08:11.390Z,72.79
2018-12-04T20:10:41.607Z,72.92
2018-12-04T20:13:12.102Z,73.02
2018-12-04T20:15:42.510Z,72.73
2018-12-04T20:18:12.702Z,72.40
2018-12-04T20:20:42.754Z,71.70
2018-12-04T20:23:13.146Z,71.81
2018-12-04T20:25:43.449Z,72.17
2018-12-04T20:28:13.746Z,72.18
2018-12-04T20:30:44.412Z,72.25
2018-12-04T20:33:14.531Z,72.79
2018-12-04T20:35:44.802Z,72.87
2018-12-04T20:38:15.290Z,72.25
2018-12-04T20:40:45.550Z,71.91
2018-12-04T20:43:15.947Z,71.87
2018-12-04T20:45:46.342Z,72.40
2018-12-04T20:48:16.622Z,72.78
2018-12-04T20:50:46.953Z,72.39
2018-12-04T20:53:17.297Z,72.37
2018-12-04T20:55:47.521Z,72.37
2018-12-04T20:58:17.845Z,72.88
2018-12-04T21:00:48.124Z,72.70
2018-12-04T21:03:18.312Z,72.65
2018-12-04T21:05:48.512Z,72.58
2018-12-04T21:08:18.758Z,72.42
2018-12-04T21:10:49.078Z,72.77
2018-12-04T21:13:19.286Z,72.70
2018-12-04T21:15:49.621Z,72.72
2018-12-04T21:18:19.891Z,72.95
2018-12-04T21:20:50.255Z,72.74
2018-12-04T21:23:20.512Z,73.95
2018-12-04T21:25:50.659Z,73.53
2018-12-04T21:28:23.263Z,72.88
2018-12-04T21:30:58.615Z,72.36
2018-12-04T21:33:34.519Z,71.53
2018-12-04T21:36:09.992Z,71.43
2018-12-04T21:39:04.477Z,72.13
2018-12-04T21:41:39.668Z,72.55
2018-12-04T21:44:15.075Z,73.63
2018-12-04T21:46:50.493Z,73.98
2018-12-04T21:49:20.790Z,73.15
2018-12-04T21:51:51.038Z,73.82
2018-12-04T21:54:21.468Z,74.16
2018-12-04T21:56:51.765Z,73.88
2018-12-04T21:59:21.941Z,73.53
2018-12-04T22:01:52.198Z,73.18
2018-12-04T22:04:22.493Z,73.52
2018-12-04T22:06:52.745Z,73.48
2018-12-04T22:09:22.977Z,73.25
2018-12-04T22:11:53.175Z,72.57
2018-12-04T22:14:23.426Z,73.49
2018-12-04T22:16:54.446Z,73.62
2018-12-04T22:19:24.883Z,72.92
2018-12-04T22:21:55.429Z,73.92
2018-12-04T22:24:26.085Z,73.96
2018-12-04T22:26:56.534Z,73.98
2018-12-04T22:29:27.074Z,73.33
2018-12-04T22:31:57.486Z,73.03
2018-12-04T22:34:27.640Z,72.40
2018-12-04T22:36:57.930Z,72.81
2018-12-04T22:39:28.211Z,72.15
2018-12-04T22:41:58.352Z,73.12
2018-12-04T22:44:28.551Z,73.17
2018-12-04T22:46:58.893Z,73.55
2018-12-04T22:49:29.225Z,73.74
2018-12-04T22:51:59.476Z,73.76
2018-12-04T22:54:29.750Z,73.58
2018-12-04T22:56:59.963Z,73.00
2018-12-04T22:59:30.328Z,73.48
2018-12-04T23:02:01.544Z,72.93
2018-12-04T23:04:31.803Z,73.05
2018-12-04T23:07:02.097Z,72.70
2018-12-04T23:09:32.497Z,72.58
2018-12-04T23:12:03.050Z,72.53
2018-12-04T23:14:33.731Z,72.53
2018-12-04T23:17:04.253Z,71.35
2018-12-04T23:19:34.576Z,72.33
2018-12-04T23:22:05.727Z,72.22
2018-12-04T23:24:36.962Z,72.76
2018-12-04T23:27:07.349Z,73.47
2018-12-04T23:29:37.588Z,73.66
2018-12-04T23:32:07.800Z,73.89
2018-12-04T23:34:38.037Z,72.86
2018-12-04T23:37:08.300Z,72.94
2018-12-04T23:39:38.433Z,72.94
2018-12-04T23:42:08.671Z,73.04
2018-12-04T23:44:38.914Z,74.03
2018-12-04T23:47:09.223Z,73.85
2018-12-04T23:49:39.391Z,73.84
2018-12-04T23:52:09.707Z,74.06
2018-12-04T23:54:39.974Z,73.66
2018-12-04T23:57:10.160Z,74.06
2018-12-04T23:59:40.448Z,73.55
